createdAt,value
2022-10-22T00:00:21.626Z,37.30
2022-10-22T00:02:52.713Z,28.10
2022-10-22T00:05:23.753Z,31.40
2022-10-22T00:07:54.760Z,34.10
2022-10-22T00:10:25.722Z,32.00
2022-10-22T00:12:56.619Z,32.70
2022-10-22T00:15:27.618Z,34.70
2022-10-22T00:17:58.614Z,34.80
2022-10-22T00:20:29.494Z,40.70
2022-10-22T00:23:00.443Z,29.10
2022-10-22T00:25:31.337Z,31.50
2022-10-22T00:28:02.270Z,40.40
2022-10-22T00:30:34.282Z,28.90
2022-10-22T00:33:05.254Z,34.00
2022-10-22T00:35:36.918Z,32.00
2022-10-22T00:38:07.843Z,32.50
2022-10-22T00:40:38.680Z,32.60
2022-10-22T00:43:12.300Z,34.60
2022-10-22T00:45:43.645Z,28.40
2022-10-22T00:48:17.664Z,29.10
2022-10-22T00:50:52.064Z,36.30
2022-10-22T00:53:26.403Z,34.40
2022-10-22T00:55:57.567Z,31.10
2022-10-22T00:58:31.944Z,32.60
2022-10-22T01:01:03.264Z,32.10
2022-10-22T01:03:34.364Z,30.40
2022-10-22T01:06:07.247Z,32.90
2022-10-22T01:08:44.370Z,26.60
2022-10-22T01:11:23.358Z,31.70
2022-10-22T01:14:02.138Z,31.30
2022-10-22T01:16:43.262Z,34.80
2022-10-22T01:19:32.433Z,27.40
2022-10-22T01:22:11.046Z,25.20
2022-10-22T01:24:53.444Z,26.60
2022-10-22T01:27:31.777Z,29.20
2022-10-22T01:30:06.943Z,31.10
2022-10-22T01:35:13.535Z,29.10
2022-10-22T01:37:48.627Z,25.60
2022-10-22T01:40:21.224Z,29.50
2022-10-22T01:43:00.776Z,28.80
2022-10-22T01:45:34.714Z,36.40
2022-10-22T01:48:14.629Z,30.80
2022-10-22T01:51:02.268Z,33.00
2022-10-22T01:53:42.658Z,27.10
2022-10-22T01:56:36.359Z,24.10
2022-10-22T01:59:16.571Z,29.40
2022-10-22T02:01:58.501Z,28.40
2022-10-22T02:04:35.417Z,26.20
2022-10-22T02:07:12.015Z,26.40
2022-10-22T02:09:44.621Z,30.10
2022-10-22T02:12:17.651Z,26.80
2022-10-22T02:14:50.439Z,31.10
2022-10-22T02:17:23.169Z,26.60
2022-10-22T02:19:58.795Z,28.40
2022-10-22T02:22:31.005Z,32.60
2022-10-22T02:25:01.941Z,27.20
2022-10-22T02:27:38.039Z,30.60
2022-10-22T02:30:12.697Z,34.50
2022-10-22T02:32:50.861Z,31.30
2022-10-22T02:35:24.419Z,27.10
2022-10-22T02:37:57.664Z,27.20
2022-10-22T02:40:29.904Z,29.10
2022-10-22T02:43:01.023Z,27.50
2022-10-22T02:45:32.259Z,23.50
2022-10-22T02:48:03.531Z,28.20
2022-10-22T02:50:34.806Z,26.60
2022-10-22T02:53:05.626Z,31.60
2022-10-22T02:55:36.553Z,29.20
2022-10-22T02:58:07.372Z,28.20
2022-10-22T03:00:38.397Z,24.10
2022-10-22T03:03:09.751Z,29.00
2022-10-22T03:05:41.234Z,27.10
2022-10-22T03:08:12.111Z,28.70
2022-10-22T03:10:42.949Z,30.20
2022-10-22T03:13:13.776Z,32.90
2022-10-22T03:15:44.890Z,26.20
2022-10-22T03:18:15.804Z,26.70
2022-10-22T03:20:47.146Z,25.00
2022-10-22T03:23:20.913Z,21.80
2022-10-22T03:25:52.487Z,25.10
2022-10-22T03:28:23.316Z,28.60
2022-10-22T03:30:54.225Z,24.00
2022-10-22T03:33:25.192Z,27.00
2022-10-22T03:35:56.262Z,30.30
2022-10-22T03:38:27.562Z,30.20
2022-10-22T03:40:58.765Z,29.90
2022-10-22T03:43:30.116Z,27.60
2022-10-22T03:46:01.117Z,22.40
2022-10-22T03:48:32.211Z,23.90
2022-10-22T03:51:03.136Z,28.20
2022-10-22T03:53:33.974Z,27.40
2022-10-22T03:56:08.796Z,24.90
2022-10-22T03:58:40.603Z,20.90
2022-10-22T04:01:13.473Z,23.20
2022-10-22T04:03:44.374Z,23.20
2022-10-22T04:06:16.131Z,24.30
2022-10-22T04:08:47.729Z,26.20
2022-10-22T04:11:19.024Z,32.80
2022-10-22T04:13:49.974Z,28.30
2022-10-22T04:16:25.076Z,25.40
2022-10-22T04:18:59.032Z,34.50
2022-10-22T04:21:29.856Z,23.90
2022-10-22T04:24:00.698Z,25.30
2022-10-22T04:26:31.615Z,26.10
2022-10-22T04:29:02.609Z,22.50
2022-10-22T04:31:33.457Z,30.50
2022-10-22T04:34:04.738Z,24.20
2022-10-22T04:36:36.550Z,24.40
2022-10-22T04:39:08.051Z,21.30
2022-10-22T04:41:40.443Z,22.60
2022-10-22T04:44:13.875Z,19.40
2022-10-22T04:46:47.538Z,23.30
2022-10-22T04:49:18.721Z,22.70
2022-10-22T04:51:49.673Z,21.50
2022-10-22T04:54:20.596Z,19.00
2022-10-22T04:56:51.633Z,27.20
2022-10-22T04:59:22.611Z,24.30
2022-10-22T05:01:53.704Z,26.00
2022-10-22T05:04:24.628Z,26.10
2022-10-22T05:06:55.575Z,21.90
2022-10-22T05:09:26.884Z,23.00
2022-10-22T05:11:57.770Z,22.50
2022-10-22T05:14:28.823Z,21.30
2022-10-22T05:16:59.843Z,21.50
2022-10-22T05:19:32.313Z,23.70
2022-10-22T05:22:05.649Z,21.40
2022-10-22T05:24:38.070Z,22.10
2022-10-22T05:27:09.040Z,26.80
2022-10-22T05:29:40.218Z,22.90
2022-10-22T05:32:10.984Z,21.70
2022-10-22T05:34:42.014Z,22.50
2022-10-22T05:37:12.880Z,29.90
2022-10-22T05:39:43.717Z,25.10
2022-10-22T05:42:14.963Z,26.10
2022-10-22T05:44:46.387Z,24.00
2022-10-22T05:47:17.171Z,33.00
2022-10-22T05:49:48.023Z,25.20
2022-10-22T05:52:18.952Z,23.40
2022-10-22T05:54:49.903Z,22.20
2022-10-22T05:57:20.839Z,28.50
2022-10-22T05:59:51.723Z,26.30
2022-10-22T06:02:22.665Z,20.10
2022-10-22T06:04:53.511Z,21.00
2022-10-22T06:07:24.951Z,21.30
2022-10-22T06:09:56.194Z,24.70
2022-10-22T06:12:27.498Z,26.20
2022-10-22T06:15:05.252Z,22.20
2022-10-22T06:17:36.049Z,25.60
2022-10-22T06:20:08.332Z,23.10
2022-10-22T06:22:40.004Z,22.70
2022-10-22T06:25:12.610Z,21.90
2022-10-22T06:27:43.540Z,30.40
2022-10-22T06:30:15.754Z,33.20
2022-10-22T06:32:46.642Z,24.20
2022-10-22T06:35:17.679Z,27.10
2022-10-22T06:37:48.810Z,21.70
2022-10-22T06:40:19.860Z,26.30
2022-10-22T06:42:50.720Z,25.00
2022-10-22T06:45:21.626Z,24.60
2022-10-22T06:47:53.733Z,25.90
2022-10-22T06:50:25.022Z,25.10
2022-10-22T06:52:56.201Z,24.00
2022-10-22T06:55:27.507Z,23.20
2022-10-22T06:57:58.973Z,23.30
2022-10-22T07:00:29.902Z,20.50
2022-10-22T07:03:02.962Z,24.70
2022-10-22T07:05:36.809Z,29.70
2022-10-22T07:08:08.379Z,22.70
2022-10-22T07:10:39.241Z,23.20
2022-10-22T07:13:11.371Z,25.00
2022-10-22T07:15:42.160Z,26.80
2022-10-22T07:18:13.006Z,21.60
2022-10-22T07:20:43.833Z,28.60
2022-10-22T07:23:14.649Z,23.60
2022-10-22T07:25:45.806Z,28.20
2022-10-22T07:28:16.763Z,25.60
2022-10-22T07:30:48.016Z,20.60
2022-10-22T07:33:18.996Z,20.70
2022-10-22T07:35:49.833Z,26.00
2022-10-22T07:38:20.745Z,26.00
2022-10-22T07:40:51.722Z,24.90
2022-10-22T07:43:22.618Z,23.90
2022-10-22T07:45:56.403Z,26.70
2022-10-22T07:48:27.342Z,21.10
2022-10-22T07:50:58.952Z,26.90
2022-10-22T07:53:29.859Z,31.50
2022-10-22T07:56:01.306Z,21.20
2022-10-22T07:58:32.775Z,25.80
2022-10-22T08:01:05.920Z,21.70
2022-10-22T08:03:37.077Z,23.30
2022-10-22T08:06:08.818Z,21.10
2022-10-22T08:08:40.290Z,28.60
2022-10-22T08:11:12.661Z,25.20
2022-10-22T08:13:45.545Z,22.90
2022-10-22T08:16:16.974Z,24.80
2022-10-22T08:18:48.159Z,25.80
2022-10-22T08:21:19.096Z,26.70
2022-10-22T08:23:49.938Z,27.40
2022-10-22T08:26:20.968Z,23.90
2022-10-22T08:28:51.924Z,23.50
2022-10-22T08:31:22.695Z,23.10
2022-10-22T08:33:53.510Z,21.00
2022-10-22T08:36:24.623Z,26.70
2022-10-22T08:38:55.455Z,21.10
2022-10-22T08:41:27.284Z,24.70
2022-10-22T08:44:16.921Z,26.00
2022-10-22T08:47:03.910Z,24.00
2022-10-22T08:49:39.829Z,24.10
2022-10-22T08:52:17.327Z,29.00
2022-10-22T08:54:54.459Z,26.50
2022-10-22T08:57:50.011Z,28.90
2022-10-22T09:00:29.157Z,25.70
2022-10-22T09:03:13.192Z,23.60
2022-10-22T09:08:28.179Z,26.70
2022-10-22T09:11:03.897Z,30.50
2022-10-22T09:13:34.764Z,26.60
2022-10-22T09:16:17.570Z,26.80
2022-10-22T09:19:00.383Z,28.70
2022-10-22T09:21:44.714Z,28.10
2022-10-22T09:24:22.626Z,27.40
2022-10-22T09:26:53.842Z,29.20
2022-10-22T09:29:32.901Z,33.00
2022-10-22T09:32:03.946Z,30.50
2022-10-22T09:34:35.458Z,33.00
2022-10-22T09:37:09.250Z,28.60
2022-10-22T09:39:45.182Z,31.40
2022-10-22T09:42:18.600Z,35.40
2022-10-22T09:44:56.020Z,35.10
2022-10-22T09:47:43.613Z,34.30
2022-10-22T09:50:38.224Z,32.30
2022-10-22T09:53:18.838Z,30.80
2022-10-22T09:58:30.971Z,29.90
2022-10-22T10:01:03.853Z,28.20
2022-10-22T10:03:35.324Z,26.70
2022-10-22T10:06:07.358Z,26.70
2022-10-22T10:08:38.292Z,34.20
2022-10-22T10:11:17.666Z,30.80
2022-10-22T10:13:59.456Z,31.40
2022-10-22T10:16:41.830Z,30.50
2022-10-22T10:19:25.931Z,31.60
2022-10-22T10:22:08.994Z,32.00
2022-10-22T10:24:57.283Z,31.80
2022-10-22T10:27:35.131Z,30.40
2022-10-22T10:30:11.775Z,31.70
2022-10-22T10:32:58.749Z,32.20
2022-10-22T10:35:36.292Z,33.40
2022-10-22T10:38:24.744Z,38.60
2022-10-22T10:41:05.357Z,28.30
2022-10-22T10:43:45.258Z,33.10
2022-10-22T10:46:25.496Z,33.60
2022-10-22T10:49:00.559Z,30.30
2022-10-22T10:51:43.870Z,33.10
2022-10-22T10:54:32.829Z,28.70
2022-10-22T10:57:12.312Z,31.50
2022-10-22T10:59:55.837Z,29.70
2022-10-22T11:03:00.220Z,33.60
2022-10-22T11:05:39.252Z,32.70
2022-10-22T11:08:16.354Z,30.20
2022-10-22T11:10:50.903Z,35.20
2022-10-22T11:13:29.259Z,41.00
2022-10-22T11:16:06.693Z,36.40
2022-10-22T11:18:42.488Z,32.80
2022-10-22T11:21:22.853Z,31.70
2022-10-22T11:24:02.186Z,31.30
2022-10-22T11:26:40.218Z,34.00
2022-10-22T11:29:16.219Z,34.60
2022-10-22T11:31:48.695Z,33.50
2022-10-22T11:34:38.356Z,35.50
2022-10-22T11:37:11.980Z,34.30
2022-10-22T11:39:46.927Z,28.10
2022-10-22T11:42:23.123Z,38.60
2022-10-22T11:45:04.565Z,34.60
2022-10-22T11:47:43.147Z,32.40
2022-10-22T11:50:27.960Z,39.20
2022-10-22T11:53:05.403Z,36.00
2022-10-22T11:55:49.061Z,34.70
2022-10-22T11:58:42.923Z,39.60
2022-10-22T12:01:26.032Z,39.10
2022-10-22T12:04:22.000Z,40.10
2022-10-22T12:07:03.314Z,40.60
2022-10-22T12:09:41.520Z,47.50
2022-10-22T12:12:17.693Z,40.20
2022-10-22T12:14:59.366Z,40.30
2022-10-22T12:17:32.406Z,48.10
2022-10-22T12:20:09.643Z,40.40
2022-10-22T12:22:41.457Z,46.50
2022-10-22T12:25:22.259Z,35.90
2022-10-22T12:27:57.308Z,43.90
2022-10-22T12:30:30.756Z,41.30
2022-10-22T12:33:03.536Z,39.20
2022-10-22T12:35:36.732Z,49.30
2022-10-22T12:38:16.067Z,41.40
2022-10-22T12:40:48.848Z,44.60
2022-10-22T12:43:25.252Z,41.30
2022-10-22T12:45:57.780Z,40.90
2022-10-22T12:48:34.436Z,40.90
2022-10-22T12:51:08.239Z,43.10
2022-10-22T12:53:44.410Z,38.70
2022-10-22T12:56:17.399Z,42.00
2022-10-22T12:58:53.454Z,38.30
2022-10-22T13:01:26.925Z,34.70
2022-10-22T13:04:21.537Z,37.40
2022-10-22T13:06:54.655Z,37.90
2022-10-22T13:09:27.929Z,37.30
2022-10-22T13:12:05.497Z,41.50
2022-10-22T13:14:38.666Z,34.40
2022-10-22T13:17:13.351Z,41.30
2022-10-22T13:19:48.039Z,35.60
2022-10-22T13:22:36.596Z,36.50
2022-10-22T13:25:26.924Z,34.80
2022-10-22T13:27:59.583Z,33.80
2022-10-22T13:30:32.987Z,34.70
2022-10-22T13:33:05.796Z,36.60
2022-10-22T13:35:39.468Z,36.30
2022-10-22T13:38:16.657Z,36.10
2022-10-22T13:40:48.009Z,34.80
2022-10-22T13:43:20.067Z,37.90
2022-10-22T13:45:54.401Z,39.50
2022-10-22T13:48:27.596Z,32.40
2022-10-22T13:50:58.542Z,34.50
2022-10-22T13:53:31.483Z,34.80
2022-10-22T13:56:02.324Z,37.40
2022-10-22T13:58:33.281Z,34.70
2022-10-22T14:01:08.921Z,42.40
2022-10-22T14:03:40.479Z,34.10
2022-10-22T14:06:15.748Z,33.00
2022-10-22T14:08:50.637Z,34.00
2022-10-22T14:11:21.542Z,34.40
2022-10-22T14:13:52.328Z,32.00
2022-10-22T14:16:26.180Z,35.50
2022-10-22T14:18:58.339Z,36.30
2022-10-22T14:21:37.282Z,32.40
2022-10-22T14:24:13.000Z,37.60
2022-10-22T14:26:44.519Z,33.40
2022-10-22T14:29:15.908Z,32.90
2022-10-22T14:31:47.267Z,38.60
2022-10-22T14:34:18.728Z,31.90
2022-10-22T14:36:49.565Z,32.00
2022-10-22T14:39:21.742Z,38.00
2022-10-22T14:41:52.555Z,37.70
2022-10-22T14:44:24.294Z,38.20
2022-10-22T14:46:56.426Z,37.00
2022-10-22T14:49:27.232Z,35.70
2022-10-22T14:51:58.083Z,34.60
2022-10-22T14:54:28.920Z,38.30
2022-10-22T14:56:59.761Z,34.60
2022-10-22T14:59:31.193Z,40.20
2022-10-22T15:02:02.089Z,38.60
2022-10-22T15:04:33.476Z,41.20
2022-10-22T15:07:04.301Z,39.20
2022-10-22T15:09:35.157Z,38.80
2022-10-22T15:12:06.537Z,42.90
2022-10-22T15:14:37.400Z,44.10
2022-10-22T15:17:08.196Z,43.90
2022-10-22T15:19:39.066Z,37.90
2022-10-22T15:22:10.030Z,44.90
2022-10-22T15:24:43.890Z,50.20
2022-10-22T15:27:14.777Z,40.30
2022-10-22T15:29:45.660Z,43.30
2022-10-22T15:32:16.673Z,43.60
2022-10-22T15:34:47.499Z,47.80
2022-10-22T15:37:18.372Z,45.10
2022-10-22T15:39:49.605Z,47.70
2022-10-22T15:42:20.558Z,47.50
2022-10-22T15:44:58.097Z,43.80
2022-10-22T15:47:31.205Z,41.40
2022-10-22T15:50:02.080Z,41.90
2022-10-22T15:52:33.687Z,47.40
2022-10-22T15:55:07.096Z,45.30
2022-10-22T15:57:38.053Z,47.30
2022-10-22T16:00:11.201Z,46.20
2022-10-22T16:02:46.131Z,45.80
2022-10-22T16:05:17.155Z,43.90
2022-10-22T16:07:47.998Z,45.50
2022-10-22T16:10:18.961Z,48.90
2022-10-22T16:12:51.627Z,49.10
2022-10-22T16:15:22.553Z,46.00
2022-10-22T16:17:54.282Z,51.20
2022-10-22T16:20:25.174Z,46.10
2022-10-22T16:22:56.135Z,51.00
2022-10-22T16:25:27.060Z,52.10
2022-10-22T16:27:57.866Z,51.90
2022-10-22T16:30:28.721Z,48.60
2022-10-22T16:33:00.864Z,64.40
2022-10-22T16:35:33.570Z,54.00
2022-10-22T16:38:04.479Z,54.00
2022-10-22T16:40:35.337Z,64.40
2022-10-22T16:43:06.397Z,59.00
2022-10-22T16:45:37.268Z,60.80
2022-10-22T16:48:08.575Z,61.40
2022-10-22T16:50:41.560Z,54.50
2022-10-22T16:53:13.023Z,53.10
2022-10-22T16:55:44.154Z,57.40
2022-10-22T16:58:14.991Z,53.10
2022-10-22T17:00:46.171Z,63.80
2022-10-22T17:03:17.093Z,63.50
2022-10-22T17:05:47.913Z,51.10
2022-10-22T17:08:20.000Z,48.50
2022-10-22T17:10:56.765Z,54.00
2022-10-22T17:13:27.684Z,58.60
2022-10-22T17:16:05.121Z,55.20
2022-10-22T17:18:38.221Z,50.90
2022-10-22T17:21:11.150Z,55.40
2022-10-22T17:23:42.765Z,52.00
2022-10-22T17:26:17.856Z,56.90
2022-10-22T17:31:24.920Z,58.20
2022-10-22T17:33:57.470Z,55.70
2022-10-22T17:36:33.395Z,49.10
2022-10-22T17:39:09.034Z,58.10
2022-10-22T17:41:40.275Z,53.90
2022-10-22T17:44:13.568Z,57.90
2022-10-22T17:46:45.736Z,55.50
2022-10-22T17:49:24.093Z,58.90
2022-10-22T17:51:55.124Z,62.00
2022-10-22T17:54:26.042Z,56.00
2022-10-22T17:56:57.067Z,65.50
2022-10-22T17:59:28.816Z,58.30
2022-10-22T18:02:02.259Z,64.80
2022-10-22T18:04:34.151Z,66.70
2022-10-22T18:07:05.060Z,58.20
2022-10-22T18:09:36.011Z,61.00
2022-10-22T18:12:07.594Z,56.90
2022-10-22T18:14:38.879Z,53.30
2022-10-22T18:17:11.217Z,62.00
2022-10-22T18:19:42.144Z,55.90
2022-10-22T18:22:12.959Z,59.10
2022-10-22T18:24:44.358Z,58.10
2022-10-22T18:27:15.246Z,57.80
2022-10-22T18:29:47.230Z,60.50
2022-10-22T18:32:18.145Z,62.10
2022-10-22T18:34:49.357Z,58.60
2022-10-22T18:37:20.439Z,55.40
2022-10-22T18:39:52.052Z,52.80
2022-10-22T18:42:23.951Z,59.90
2022-10-22T18:44:56.384Z,53.20
2022-10-22T18:47:27.128Z,51.20
2022-10-22T18:49:57.986Z,57.10
2022-10-22T18:52:28.828Z,52.70
2022-10-22T18:54:59.756Z,48.30
2022-10-22T18:57:30.607Z,47.80
2022-10-22T19:00:01.559Z,48.80
2022-10-22T19:02:32.501Z,52.80
2022-10-22T19:05:03.358Z,49.10
2022-10-22T19:07:34.185Z,52.20
2022-10-22T19:10:05.794Z,47.60
2022-10-22T19:12:37.023Z,45.10
2022-10-22T19:15:09.317Z,48.90
2022-10-22T19:17:40.466Z,47.20
2022-10-22T19:20:12.961Z,49.70
2022-10-22T19:22:43.822Z,44.10
2022-10-22T19:25:14.681Z,48.90
2022-10-22T19:27:45.654Z,46.30
2022-10-22T19:30:17.294Z,42.10
2022-10-22T19:32:48.833Z,47.60
2022-10-22T19:35:19.983Z,39.40
2022-10-22T19:37:52.164Z,42.60
2022-10-22T19:40:25.978Z,37.60
2022-10-22T19:42:56.950Z,36.60
2022-10-22T19:45:27.899Z,42.20
2022-10-22T19:47:58.671Z,36.20
2022-10-22T19:50:29.513Z,37.60
2022-10-22T19:53:01.522Z,29.10
2022-10-22T19:55:32.399Z,34.70
2022-10-22T19:58:03.320Z,33.40
2022-10-22T20:00:34.210Z,38.40
2022-10-22T20:03:05.221Z,35.30
2022-10-22T20:05:38.865Z,38.00
2022-10-22T20:08:09.805Z,31.40
2022-10-22T20:10:40.922Z,32.00
2022-10-22T20:13:11.758Z,35.90
2022-10-22T20:15:42.919Z,31.60
2022-10-22T20:18:13.907Z,37.90
2022-10-22T20:20:44.916Z,31.00
2022-10-22T20:23:15.745Z,28.50
2022-10-22T20:25:47.989Z,35.10
2022-10-22T20:28:19.149Z,27.90
2022-10-22T20:30:49.973Z,32.30
2022-10-22T20:33:20.811Z,31.20
2022-10-22T20:36:02.234Z,29.20
2022-10-22T20:38:33.168Z,30.60
2022-10-22T20:41:06.456Z,30.10
2022-10-22T20:43:37.369Z,29.70
2022-10-22T20:46:08.567Z,29.30
2022-10-22T20:48:41.103Z,31.90
2022-10-22T20:51:12.384Z,28.40
2022-10-22T20:53:43.304Z,26.80
2022-10-22T20:56:15.117Z,28.10
2022-10-22T20:58:48.588Z,24.00
2022-10-22T21:01:23.956Z,24.30
2022-10-22T21:03:55.543Z,22.60
2022-10-22T21:06:26.404Z,20.40
2022-10-22T21:08:57.243Z,20.20
2022-10-22T21:11:28.171Z,17.40
2022-10-22T21:13:59.279Z,19.00
2022-10-22T21:16:30.580Z,22.00
2022-10-22T21:19:01.867Z,17.40
2022-10-22T21:21:33.011Z,23.00
2022-10-22T21:24:03.856Z,19.60
2022-10-22T21:26:37.245Z,19.00
2022-10-22T21:29:08.737Z,18.00
2022-10-22T21:31:40.647Z,23.50
2022-10-22T21:34:13.028Z,20.30
2022-10-22T21:36:44.358Z,20.20
2022-10-22T21:39:17.094Z,19.50
2022-10-22T21:41:48.034Z,21.10
2022-10-22T21:44:19.102Z,21.80
2022-10-22T21:46:50.070Z,19.80
2022-10-22T21:49:21.026Z,21.00
2022-10-22T21:51:52.096Z,21.10
2022-10-22T21:54:22.902Z,21.80
2022-10-22T21:56:53.977Z,22.70
2022-10-22T21:59:24.998Z,26.70
2022-10-22T22:01:57.275Z,24.40
2022-10-22T22:04:28.352Z,32.10
2022-10-22T22:06:59.211Z,22.70
2022-10-22T22:09:30.014Z,23.40
2022-10-22T22:12:00.903Z,25.10
2022-10-22T22:14:33.015Z,31.60
2022-10-22T22:17:03.960Z,23.80
2022-10-22T22:19:34.856Z,26.70
2022-10-22T22:22:06.115Z,29.50
2022-10-22T22:24:37.609Z,24.10
2022-10-22T22:27:09.009Z,30.10
2022-10-22T22:29:41.065Z,26.10
2022-10-22T22:32:14.313Z,26.20
2022-10-22T22:34:45.289Z,24.20
2022-10-22T22:37:16.135Z,25.80
2022-10-22T22:39:47.173Z,26.10
2022-10-22T22:42:17.971Z,27.90
2022-10-22T22:44:48.864Z,28.00
2022-10-22T22:47:19.767Z,29.20
2022-10-22T22:49:50.718Z,24.20
2022-10-22T22:54:52.470Z,27.10
2022-10-22T22:57:23.355Z,28.90
2022-10-22T22:59:54.309Z,22.70
2022-10-22T23:02:25.440Z,25.80
2022-10-22T23:04:56.349Z,26.90
2022-10-22T23:07:27.350Z,26.30
2022-10-22T23:09:58.228Z,25.60
2022-10-22T23:12:29.513Z,24.50
2022-10-22T23:15:02.316Z,26.10
2022-10-22T23:17:33.293Z,22.40
2022-10-22T23:20:04.474Z,27.10
2022-10-22T23:22:35.297Z,20.70
2022-10-22T23:25:07.016Z,22.70
2022-10-22T23:27:37.851Z,24.60
2022-10-22T23:30:10.790Z,25.10
2022-10-22T23:32:41.701Z,27.80
2022-10-22T23:35:13.631Z,21.50
2022-10-22T23:37:44.635Z,24.20
2022-10-22T23:40:16.207Z,21.10
2022-10-22T23:42:47.050Z,23.10
2022-10-22T23:45:18.077Z,25.30
2022-10-22T23:47:48.963Z,24.50
2022-10-22T23:50:19.803Z,22.90
2022-10-22T23:52:52.016Z,22.10
2022-10-22T23:55:22.906Z,25.10
2022-10-22T23:57:53.774Z,23.30
